Metar GG30 METAR message from awiacja.imgw.pl Metar G30 EPGD METAR EPGD 201530Z 18009KT 9999 SCT025 05/01 Q1015 =